sensor_id;sensor_type;location;lat;lon;timestamp;P1;durP1;ratioP1;P2;durP2;ratioP2
22240;SDS011;11289;52.524;13.694;2023-02-15T00:01:46;38.70;;;23.25;;
22240;SDS011;11289;52.524;13.694;2023-02-15T00:04:15;38.78;;;22.20;;
22240;SDS011;11289;52.524;13.694;2023-02-15T00:06:42;43.05;;;24.33;;
22240;SDS011;11289;52.524;13.694;2023-02-15T00:09:09;42.33;;;24.65;;
22240;SDS011;11289;52.524;13.694;2023-02-15T00:11:35;39.42;;;25.85;;
22240;SDS011;11289;52.524;13.694;2023-02-15T00:14:21;40.13;;;24.30;;
22240;SDS011;11289;52.524;13.694;2023-02-15T00:16:49;40.38;;;24.35;;
22240;SDS011;11289;52.524;13.694;2023-02-15T00:19:17;37.05;;;22.80;;
22240;SDS011;11289;52.524;13.694;2023-02-15T00:21:43;38.85;;;23.73;;
22240;SDS011;11289;52.524;13.694;2023-02-15T00:24:10;40.08;;;23.63;;
22240;SDS011;11289;52.524;13.694;2023-02-15T00:26:37;35.95;;;22.90;;
22240;SDS011;11289;52.524;13.694;2023-02-15T00:29:03;41.60;;;24.17;;
22240;SDS011;11289;52.524;13.694;2023-02-15T00:31:29;39.42;;;22.38;;
22240;SDS011;11289;52.524;13.694;2023-02-15T00:34:00;39.58;;;23.35;;
22240;SDS011;11289;52.524;13.694;2023-02-15T00:36:30;40.00;;;24.00;;
22240;SDS011;11289;52.524;13.694;2023-02-15T00:38:55;42.03;;;24.83;;
22240;SDS011;11289;52.524;13.694;2023-02-15T00:41:21;38.22;;;24.05;;
22240;SDS011;11289;52.524;13.694;2023-02-15T00:43:46;44.17;;;24.63;;
22240;SDS011;11289;52.524;13.694;2023-02-15T00:46:12;41.88;;;24.52;;
22240;SDS011;11289;52.524;13.694;2023-02-15T00:48:37;39.83;;;22.90;;
22240;SDS011;11289;52.524;13.694;2023-02-15T00:51:02;42.10;;;23.45;;
22240;SDS011;11289;52.524;13.694;2023-02-15T00:53:28;45.10;;;24.35;;
22240;SDS011;11289;52.524;13.694;2023-02-15T00:55:54;41.75;;;24.20;;
22240;SDS011;11289;52.524;13.694;2023-02-15T00:58:25;45.53;;;24.60;;
22240;SDS011;11289;52.524;13.694;2023-02-15T01:01:02;40.97;;;23.88;;
22240;SDS011;11289;52.524;13.694;2023-02-15T01:03:48;39.47;;;23.20;;
22240;SDS011;11289;52.524;13.694;2023-02-15T01:06:14;44.25;;;26.00;;
22240;SDS011;11289;52.524;13.694;2023-02-15T01:08:41;44.33;;;24.98;;
22240;SDS011;11289;52.524;13.694;2023-02-15T01:11:08;42.17;;;24.63;;
22240;SDS011;11289;52.524;13.694;2023-02-15T01:13:35;47.80;;;26.40;;
22240;SDS011;11289;52.524;13.694;2023-02-15T01:16:01;47.10;;;26.08;;
22240;SDS011;11289;52.524;13.694;2023-02-15T01:18:28;46.88;;;26.83;;
22240;SDS011;11289;52.524;13.694;2023-02-15T01:20:54;46.90;;;26.10;;
22240;SDS011;11289;52.524;13.694;2023-02-15T01:23:20;47.58;;;25.88;;
22240;SDS011;11289;52.524;13.694;2023-02-15T01:25:45;47.25;;;25.65;;
22240;SDS011;11289;52.524;13.694;2023-02-15T01:28:11;44.90;;;24.48;;
22240;SDS011;11289;52.524;13.694;2023-02-15T01:30:36;46.00;;;25.30;;
22240;SDS011;11289;52.524;13.694;2023-02-15T01:33:02;41.33;;;24.15;;
22240;SDS011;11289;52.524;13.694;2023-02-15T01:35:28;47.75;;;26.30;;
22240;SDS011;11289;52.524;13.694;2023-02-15T01:37:54;42.95;;;25.52;;
22240;SDS011;11289;52.524;13.694;2023-02-15T01:40:20;45.33;;;24.95;;
22240;SDS011;11289;52.524;13.694;2023-02-15T01:42:50;45.00;;;25.27;;
22240;SDS011;11289;52.524;13.694;2023-02-15T01:47:56;50.65;;;26.38;;
22240;SDS011;11289;52.524;13.694;2023-02-15T01:50:31;47.92;;;26.15;;
22240;SDS011;11289;52.524;13.694;2023-02-15T01:53:13;50.05;;;27.27;;
22240;SDS011;11289;52.524;13.694;2023-02-15T01:58:22;50.50;;;25.88;;
22240;SDS011;11289;52.524;13.694;2023-02-15T02:00:51;51.45;;;26.33;;
22240;SDS011;11289;52.524;13.694;2023-02-15T02:03:18;50.40;;;27.10;;
22240;SDS011;11289;52.524;13.694;2023-02-15T02:05:46;52.03;;;26.25;;
22240;SDS011;11289;52.524;13.694;2023-02-15T02:08:12;50.22;;;25.95;;
22240;SDS011;11289;52.524;13.694;2023-02-15T02:10:38;52.33;;;26.55;;
22240;SDS011;11289;52.524;13.694;2023-02-15T02:13:04;56.05;;;27.50;;
22240;SDS011;11289;52.524;13.694;2023-02-15T02:18:31;52.95;;;26.23;;
22240;SDS011;11289;52.524;13.694;2023-02-15T02:27:14;53.95;;;27.02;;
22240;SDS011;11289;52.524;13.694;2023-02-15T02:38:42;55.22;;;29.35;;
22240;SDS011;11289;52.524;13.694;2023-02-15T02:41:17;47.22;;;25.58;;
22240;SDS011;11289;52.524;13.694;2023-02-15T02:46:39;51.97;;;28.20;;
22240;SDS011;11289;52.524;13.694;2023-02-15T02:49:35;53.28;;;27.70;;
22240;SDS011;11289;52.524;13.694;2023-02-15T02:52:03;50.90;;;27.73;;
22240;SDS011;11289;52.524;13.694;2023-02-15T02:54:30;58.00;;;28.23;;
22240;SDS011;11289;52.524;13.694;2023-02-15T02:56:59;58.53;;;28.70;;
22240;SDS011;11289;52.524;13.694;2023-02-15T02:59:32;49.78;;;27.00;;
22240;SDS011;11289;52.524;13.694;2023-02-15T03:04:50;54.10;;;27.85;;
22240;SDS011;11289;52.524;13.694;2023-02-15T03:07:28;55.03;;;28.38;;
22240;SDS011;11289;52.524;13.694;2023-02-15T03:09:56;54.67;;;27.25;;
22240;SDS011;11289;52.524;13.694;2023-02-15T03:12:24;57.50;;;28.30;;
22240;SDS011;11289;52.524;13.694;2023-02-15T03:15:05;52.83;;;29.23;;
22240;SDS011;11289;52.524;13.694;2023-02-15T03:17:35;55.53;;;28.92;;
22240;SDS011;11289;52.524;13.694;2023-02-15T03:20:11;53.80;;;27.50;;
22240;SDS011;11289;52.524;13.694;2023-02-15T03:22:42;59.28;;;29.92;;
22240;SDS011;11289;52.524;13.694;2023-02-15T03:27:46;51.58;;;28.67;;
22240;SDS011;11289;52.524;13.694;2023-02-15T03:30:17;55.72;;;29.60;;
22240;SDS011;11289;52.524;13.694;2023-02-15T03:32:45;56.25;;;29.10;;
22240;SDS011;11289;52.524;13.694;2023-02-15T03:35:13;55.67;;;28.85;;
22240;SDS011;11289;52.524;13.694;2023-02-15T03:37:40;55.15;;;28.98;;
22240;SDS011;11289;52.524;13.694;2023-02-15T03:40:28;57.55;;;29.17;;
22240;SDS011;11289;52.524;13.694;2023-02-15T03:43:58;57.05;;;30.15;;
22240;SDS011;11289;52.524;13.694;2023-02-15T03:46:32;55.58;;;30.42;;
22240;SDS011;11289;52.524;13.694;2023-02-15T03:49:21;63.67;;;30.97;;
22240;SDS011;11289;52.524;13.694;2023-02-15T03:51:52;65.88;;;31.42;;
22240;SDS011;11289;52.524;13.694;2023-02-15T03:54:24;54.47;;;29.30;;
22240;SDS011;11289;52.524;13.694;2023-02-15T03:57:08;61.72;;;30.27;;
22240;SDS011;11289;52.524;13.694;2023-02-15T03:59:57;61.85;;;29.45;;
22240;SDS011;11289;52.524;13.694;2023-02-15T04:05:30;54.03;;;29.10;;
22240;SDS011;11289;52.524;13.694;2023-02-15T04:07:56;57.58;;;30.65;;
22240;SDS011;11289;52.524;13.694;2023-02-15T04:10:21;60.67;;;30.73;;
22240;SDS011;11289;52.524;13.694;2023-02-15T04:13:05;58.97;;;30.73;;
22240;SDS011;11289;52.524;13.694;2023-02-15T04:15:30;60.58;;;30.23;;
22240;SDS011;11289;52.524;13.694;2023-02-15T04:18:14;59.63;;;29.45;;
22240;SDS011;11289;52.524;13.694;2023-02-15T04:20:43;60.15;;;30.90;;
22240;SDS011;11289;52.524;13.694;2023-02-15T04:23:27;57.70;;;29.67;;
22240;SDS011;11289;52.524;13.694;2023-02-15T04:26:11;58.40;;;29.95;;
22240;SDS011;11289;52.524;13.694;2023-02-15T04:28:36;56.33;;;29.73;;
22240;SDS011;11289;52.524;13.694;2023-02-15T04:31:02;52.70;;;28.02;;
22240;SDS011;11289;52.524;13.694;2023-02-15T04:33:27;65.32;;;31.00;;
22240;SDS011;11289;52.524;13.694;2023-02-15T04:35:52;61.30;;;31.33;;
22240;SDS011;11289;52.524;13.694;2023-02-15T04:38:18;59.83;;;31.48;;
22240;SDS011;11289;52.524;13.694;2023-02-15T04:40:43;57.60;;;30.27;;
22240;SDS011;11289;52.524;13.694;2023-02-15T04:43:08;54.40;;;28.95;;
22240;SDS011;11289;52.524;13.694;2023-02-15T04:45:34;57.88;;;29.15;;
22240;SDS011;11289;52.524;13.694;2023-02-15T04:47:59;62.58;;;31.52;;
22240;SDS011;11289;52.524;13.694;2023-02-15T04:50:24;61.05;;;30.83;;
22240;SDS011;11289;52.524;13.694;2023-02-15T04:52:50;59.22;;;29.13;;
22240;SDS011;11289;52.524;13.694;2023-02-15T04:55:15;58.10;;;30.70;;
22240;SDS011;11289;52.524;13.694;2023-02-15T04:57:41;56.83;;;28.92;;
22240;SDS011;11289;52.524;13.694;2023-02-15T05:00:06;56.45;;;29.70;;
22240;SDS011;11289;52.524;13.694;2023-02-15T05:02:33;58.80;;;30.10;;
22240;SDS011;11289;52.524;13.694;2023-02-15T05:04:59;57.50;;;30.55;;
22240;SDS011;11289;52.524;13.694;2023-02-15T05:07:24;66.57;;;32.83;;
22240;SDS011;11289;52.524;13.694;2023-02-15T05:09:49;63.20;;;31.67;;
22240;SDS011;11289;52.524;13.694;2023-02-15T05:12:15;54.92;;;29.63;;
22240;SDS011;11289;52.524;13.694;2023-02-15T05:14:40;62.53;;;31.98;;
22240;SDS011;11289;52.524;13.694;2023-02-15T05:17:06;62.90;;;32.22;;
22240;SDS011;11289;52.524;13.694;2023-02-15T05:19:31;60.47;;;32.35;;
22240;SDS011;11289;52.524;13.694;2023-02-15T05:21:57;62.75;;;31.25;;
22240;SDS011;11289;52.524;13.694;2023-02-15T05:24:22;62.92;;;32.75;;
22240;SDS011;11289;52.524;13.694;2023-02-15T05:27:06;59.40;;;31.45;;
22240;SDS011;11289;52.524;13.694;2023-02-15T05:29:51;58.22;;;30.70;;
22240;SDS011;11289;52.524;13.694;2023-02-15T05:32:16;62.22;;;30.65;;
22240;SDS011;11289;52.524;13.694;2023-02-15T05:34:42;64.68;;;32.08;;
22240;SDS011;11289;52.524;13.694;2023-02-15T05:37:07;57.15;;;28.38;;
22240;SDS011;11289;52.524;13.694;2023-02-15T05:39:33;65.32;;;31.00;;
22240;SDS011;11289;52.524;13.694;2023-02-15T05:41:59;58.28;;;29.63;;
22240;SDS011;11289;52.524;13.694;2023-02-15T05:44:25;57.08;;;32.30;;
22240;SDS011;11289;52.524;13.694;2023-02-15T05:46:50;66.50;;;32.05;;
22240;SDS011;11289;52.524;13.694;2023-02-15T05:49:15;57.85;;;32.13;;
22240;SDS011;11289;52.524;13.694;2023-02-15T05:51:41;58.42;;;30.35;;
22240;SDS011;11289;52.524;13.694;2023-02-15T05:54:06;58.80;;;32.45;;
22240;SDS011;11289;52.524;13.694;2023-02-15T05:56:31;61.20;;;30.95;;
22240;SDS011;11289;52.524;13.694;2023-02-15T05:58:57;57.85;;;31.77;;
22240;SDS011;11289;52.524;13.694;2023-02-15T06:01:22;62.17;;;31.38;;
22240;SDS011;11289;52.524;13.694;2023-02-15T06:03:48;60.92;;;30.55;;
22240;SDS011;11289;52.524;13.694;2023-02-15T06:06:13;61.40;;;32.63;;
22240;SDS011;11289;52.524;13.694;2023-02-15T06:08:40;67.53;;;31.90;;
22240;SDS011;11289;52.524;13.694;2023-02-15T06:11:06;70.82;;;33.72;;
22240;SDS011;11289;52.524;13.694;2023-02-15T06:13:32;66.60;;;32.67;;
22240;SDS011;11289;52.524;13.694;2023-02-15T06:15:58;65.45;;;31.08;;
22240;SDS011;11289;52.524;13.694;2023-02-15T06:18:24;67.05;;;32.95;;
22240;SDS011;11289;52.524;13.694;2023-02-15T06:20:49;67.32;;;33.25;;
22240;SDS011;11289;52.524;13.694;2023-02-15T06:23:15;65.80;;;32.70;;
22240;SDS011;11289;52.524;13.694;2023-02-15T06:25:40;63.17;;;33.70;;
22240;SDS011;11289;52.524;13.694;2023-02-15T06:28:06;64.47;;;31.90;;
22240;SDS011;11289;52.524;13.694;2023-02-15T06:30:31;68.47;;;32.67;;
22240;SDS011;11289;52.524;13.694;2023-02-15T06:32:57;70.22;;;33.55;;
22240;SDS011;11289;52.524;13.694;2023-02-15T06:35:22;71.57;;;34.35;;
22240;SDS011;11289;52.524;13.694;2023-02-15T06:37:48;63.85;;;32.28;;
22240;SDS011;11289;52.524;13.694;2023-02-15T06:40:14;70.15;;;32.17;;
22240;SDS011;11289;52.524;13.694;2023-02-15T06:42:41;66.13;;;31.25;;
22240;SDS011;11289;52.524;13.694;2023-02-15T06:45:07;68.25;;;31.85;;
22240;SDS011;11289;52.524;13.694;2023-02-15T06:47:33;73.55;;;34.10;;
22240;SDS011;11289;52.524;13.694;2023-02-15T06:49:58;70.13;;;33.25;;
22240;SDS011;11289;52.524;13.694;2023-02-15T06:52:24;67.55;;;32.85;;
22240;SDS011;11289;52.524;13.694;2023-02-15T06:54:50;72.90;;;34.47;;
22240;SDS011;11289;52.524;13.694;2023-02-15T06:57:15;65.38;;;33.42;;
22240;SDS011;11289;52.524;13.694;2023-02-15T06:59:41;73.32;;;34.88;;
22240;SDS011;11289;52.524;13.694;2023-02-15T07:02:07;84.43;;;34.30;;
22240;SDS011;11289;52.524;13.694;2023-02-15T07:04:34;64.82;;;32.15;;
22240;SDS011;11289;52.524;13.694;2023-02-15T07:06:59;84.45;;;34.55;;
22240;SDS011;11289;52.524;13.694;2023-02-15T07:09:25;66.65;;;32.67;;
22240;SDS011;11289;52.524;13.694;2023-02-15T07:11:50;82.55;;;32.55;;
22240;SDS011;11289;52.524;13.694;2023-02-15T07:14:35;68.57;;;29.52;;
22240;SDS011;11289;52.524;13.694;2023-02-15T07:17:00;81.22;;;34.17;;
22240;SDS011;11289;52.524;13.694;2023-02-15T07:19:25;62.75;;;31.05;;
22240;SDS011;11289;52.524;13.694;2023-02-15T07:21:51;90.75;;;33.00;;
22240;SDS011;11289;52.524;13.694;2023-02-15T07:24:16;72.18;;;31.52;;
22240;SDS011;11289;52.524;13.694;2023-02-15T07:26:42;76.05;;;31.27;;
22240;SDS011;11289;52.524;13.694;2023-02-15T07:29:07;67.45;;;32.42;;
22240;SDS011;11289;52.524;13.694;2023-02-15T07:31:32;69.68;;;29.77;;
22240;SDS011;11289;52.524;13.694;2023-02-15T07:33:58;52.78;;;27.65;;
22240;SDS011;11289;52.524;13.694;2023-02-15T07:36:23;59.88;;;27.98;;
22240;SDS011;11289;52.524;13.694;2023-02-15T07:38:48;66.63;;;29.65;;
22240;SDS011;11289;52.524;13.694;2023-02-15T07:41:14;82.90;;;31.20;;
22240;SDS011;11289;52.524;13.694;2023-02-15T07:43:41;75.57;;;29.65;;
22240;SDS011;11289;52.524;13.694;2023-02-15T07:46:10;74.53;;;32.05;;
22240;SDS011;11289;52.524;13.694;2023-02-15T07:48:37;60.22;;;30.48;;
22240;SDS011;11289;52.524;13.694;2023-02-15T07:51:05;65.85;;;29.95;;
22240;SDS011;11289;52.524;13.694;2023-02-15T07:53:32;75.97;;;30.67;;
22240;SDS011;11289;52.524;13.694;2023-02-15T07:55:58;71.18;;;32.58;;
22240;SDS011;11289;52.524;13.694;2023-02-15T07:58:44;59.80;;;28.77;;
22240;SDS011;11289;52.524;13.694;2023-02-15T08:01:16;68.03;;;30.38;;
22240;SDS011;11289;52.524;13.694;2023-02-15T08:03:42;61.22;;;30.73;;
22240;SDS011;11289;52.524;13.694;2023-02-15T08:06:07;122.65;;;32.05;;
22240;SDS011;11289;52.524;13.694;2023-02-15T08:08:33;64.22;;;28.48;;
22240;SDS011;11289;52.524;13.694;2023-02-15T08:13:48;96.53;;;32.38;;
22240;SDS011;11289;52.524;13.694;2023-02-15T08:16:19;62.78;;;28.45;;
22240;SDS011;11289;52.524;13.694;2023-02-15T08:18:56;76.95;;;30.02;;
22240;SDS011;11289;52.524;13.694;2023-02-15T08:21:22;71.88;;;29.17;;
22240;SDS011;11289;52.524;13.694;2023-02-15T08:23:49;73.38;;;29.55;;
22240;SDS011;11289;52.524;13.694;2023-02-15T08:26:16;68.95;;;31.27;;
22240;SDS011;11289;52.524;13.694;2023-02-15T08:28:42;76.57;;;27.27;;
22240;SDS011;11289;52.524;13.694;2023-02-15T08:31:09;65.43;;;27.52;;
22240;SDS011;11289;52.524;13.694;2023-02-15T08:33:36;65.60;;;28.52;;
22240;SDS011;11289;52.524;13.694;2023-02-15T08:36:07;69.28;;;29.65;;
22240;SDS011;11289;52.524;13.694;2023-02-15T08:38:34;65.63;;;30.08;;
22240;SDS011;11289;52.524;13.694;2023-02-15T08:41:17;76.88;;;29.38;;
22240;SDS011;11289;52.524;13.694;2023-02-15T08:43:46;55.25;;;25.90;;
22240;SDS011;11289;52.524;13.694;2023-02-15T08:46:14;57.58;;;25.13;;
22240;SDS011;11289;52.524;13.694;2023-02-15T08:48:40;57.33;;;27.48;;
22240;SDS011;11289;52.524;13.694;2023-02-15T08:51:10;56.40;;;27.65;;
22240;SDS011;11289;52.524;13.694;2023-02-15T08:53:39;53.17;;;26.45;;
22240;SDS011;11289;52.524;13.694;2023-02-15T08:56:05;57.58;;;25.70;;
22240;SDS011;11289;52.524;13.694;2023-02-15T08:58:31;78.60;;;26.90;;
22240;SDS011;11289;52.524;13.694;2023-02-15T09:00:57;67.57;;;28.58;;
22240;SDS011;11289;52.524;13.694;2023-02-15T09:03:23;58.65;;;28.27;;
22240;SDS011;11289;52.524;13.694;2023-02-15T09:05:48;66.85;;;25.63;;
22240;SDS011;11289;52.524;13.694;2023-02-15T09:08:14;61.53;;;27.23;;
22240;SDS011;11289;52.524;13.694;2023-02-15T09:10:39;65.13;;;27.35;;
22240;SDS011;11289;52.524;13.694;2023-02-15T09:13:05;75.05;;;27.90;;
22240;SDS011;11289;52.524;13.694;2023-02-15T09:15:30;59.25;;;27.10;;
22240;SDS011;11289;52.524;13.694;2023-02-15T09:17:55;66.05;;;29.52;;
22240;SDS011;11289;52.524;13.694;2023-02-15T09:20:24;59.17;;;26.90;;
22240;SDS011;11289;52.524;13.694;2023-02-15T09:22:51;67.07;;;26.60;;
22240;SDS011;11289;52.524;13.694;2023-02-15T09:25:18;59.78;;;28.75;;
22240;SDS011;11289;52.524;13.694;2023-02-15T09:27:43;65.47;;;27.10;;
22240;SDS011;11289;52.524;13.694;2023-02-15T09:30:08;55.97;;;27.42;;
22240;SDS011;11289;52.524;13.694;2023-02-15T09:32:34;58.65;;;26.95;;
22240;SDS011;11289;52.524;13.694;2023-02-15T09:34:59;62.08;;;28.88;;
22240;SDS011;11289;52.524;13.694;2023-02-15T09:37:25;60.35;;;28.08;;
22240;SDS011;11289;52.524;13.694;2023-02-15T09:39:50;62.45;;;28.75;;
22240;SDS011;11289;52.524;13.694;2023-02-15T09:53:00;60.60;;;25.42;;
22240;SDS011;11289;52.524;13.694;2023-02-15T09:55:38;55.70;;;27.23;;
22240;SDS011;11289;52.524;13.694;2023-02-15T10:06:26;59.38;;;28.60;;
22240;SDS011;11289;52.524;13.694;2023-02-15T10:15:00;65.35;;;27.35;;
22240;SDS011;11289;52.524;13.694;2023-02-15T10:21:24;57.15;;;28.55;;
22240;SDS011;11289;52.524;13.694;2023-02-15T10:26:48;54.05;;;26.90;;
22240;SDS011;11289;52.524;13.694;2023-02-15T10:32:05;60.42;;;27.80;;
22240;SDS011;11289;52.524;13.694;2023-02-15T10:34:54;57.13;;;27.02;;
22240;SDS011;11289;52.524;13.694;2023-02-15T10:40:55;53.03;;;27.00;;
22240;SDS011;11289;52.524;13.694;2023-02-15T10:46:24;52.25;;;26.27;;
22240;SDS011;11289;52.524;13.694;2023-02-15T10:54:55;63.45;;;30.42;;
22240;SDS011;11289;52.524;13.694;2023-02-15T10:57:56;58.78;;;28.08;;
22240;SDS011;11289;52.524;13.694;2023-02-15T11:03:20;58.33;;;28.02;;
22240;SDS011;11289;52.524;13.694;2023-02-15T11:06:02;58.58;;;30.67;;
22240;SDS011;11289;52.524;13.694;2023-02-15T11:09:24;55.92;;;28.40;;
22240;SDS011;11289;52.524;13.694;2023-02-15T11:11:30;54.90;;;27.67;;
22240;SDS011;11289;52.524;13.694;2023-02-15T11:14:09;55.40;;;28.10;;
22240;SDS011;11289;52.524;13.694;2023-02-15T11:16:40;56.38;;;28.50;;
22240;SDS011;11289;52.524;13.694;2023-02-15T11:19:11;54.70;;;29.45;;
22240;SDS011;11289;52.524;13.694;2023-02-15T11:21:45;52.40;;;26.77;;
22240;SDS011;11289;52.524;13.694;2023-02-15T11:24:16;54.42;;;28.02;;
22240;SDS011;11289;52.524;13.694;2023-02-15T11:29:25;50.30;;;26.05;;
22240;SDS011;11289;52.524;13.694;2023-02-15T11:31:57;48.17;;;27.15;;
22240;SDS011;11289;52.524;13.694;2023-02-15T11:34:34;45.13;;;25.88;;
22240;SDS011;11289;52.524;13.694;2023-02-15T11:37:12;45.33;;;23.48;;
22240;SDS011;11289;52.524;13.694;2023-02-15T11:39:43;43.65;;;24.27;;
22240;SDS011;11289;52.524;13.694;2023-02-15T11:42:16;43.30;;;24.20;;
22240;SDS011;11289;52.524;13.694;2023-02-15T11:47:15;45.85;;;24.65;;
22240;SDS011;11289;52.524;13.694;2023-02-15T11:49:40;44.22;;;24.35;;
22240;SDS011;11289;52.524;13.694;2023-02-15T11:52:15;41.55;;;24.25;;
22240;SDS011;11289;52.524;13.694;2023-02-15T11:54:44;44.22;;;24.20;;
22240;SDS011;11289;52.524;13.694;2023-02-15T11:57:14;44.03;;;23.75;;
22240;SDS011;11289;52.524;13.694;2023-02-15T12:02:18;39.20;;;22.38;;
22240;SDS011;11289;52.524;13.694;2023-02-15T12:04:52;41.35;;;23.45;;
22240;SDS011;11289;52.524;13.694;2023-02-15T12:12:31;34.90;;;21.85;;
22240;SDS011;11289;52.524;13.694;2023-02-15T12:15:16;37.38;;;21.42;;
22240;SDS011;11289;52.524;13.694;2023-02-15T12:17:55;36.53;;;22.77;;
22240;SDS011;11289;52.524;13.694;2023-02-15T12:23:00;32.10;;;19.00;;
22240;SDS011;11289;52.524;13.694;2023-02-15T12:28:31;34.25;;;20.63;;
22240;SDS011;11289;52.524;13.694;2023-02-15T12:30:59;30.20;;;19.67;;
22240;SDS011;11289;52.524;13.694;2023-02-15T12:33:34;31.17;;;19.95;;
22240;SDS011;11289;52.524;13.694;2023-02-15T12:36:08;30.80;;;19.17;;
22240;SDS011;11289;52.524;13.694;2023-02-15T12:38:36;30.40;;;19.35;;
22240;SDS011;11289;52.524;13.694;2023-02-15T12:41:21;33.22;;;21.63;;
22240;SDS011;11289;52.524;13.694;2023-02-15T12:43:49;31.65;;;20.25;;
22240;SDS011;11289;52.524;13.694;2023-02-15T12:46:28;30.27;;;19.20;;
22240;SDS011;11289;52.524;13.694;2023-02-15T12:51:44;32.45;;;18.40;;
22240;SDS011;11289;52.524;13.694;2023-02-15T12:54:17;29.90;;;18.35;;
22240;SDS011;11289;52.524;13.694;2023-02-15T12:56:42;27.92;;;18.10;;
22240;SDS011;11289;52.524;13.694;2023-02-15T12:59:12;28.33;;;17.85;;
22240;SDS011;11289;52.524;13.694;2023-02-15T13:01:39;30.38;;;19.10;;
22240;SDS011;11289;52.524;13.694;2023-02-15T13:04:14;31.15;;;19.50;;
22240;SDS011;11289;52.524;13.694;2023-02-15T13:06:47;29.83;;;18.67;;
22240;SDS011;11289;52.524;13.694;2023-02-15T13:09:18;27.63;;;17.40;;
22240;SDS011;11289;52.524;13.694;2023-02-15T13:11:44;27.45;;;18.20;;
22240;SDS011;11289;52.524;13.694;2023-02-15T13:14:18;30.98;;;18.17;;
22240;SDS011;11289;52.524;13.694;2023-02-15T13:16:47;28.52;;;18.40;;
22240;SDS011;11289;52.524;13.694;2023-02-15T13:19:26;27.48;;;17.20;;
22240;SDS011;11289;52.524;13.694;2023-02-15T13:21:53;31.50;;;19.23;;
22240;SDS011;11289;52.524;13.694;2023-02-15T13:24:24;25.80;;;16.60;;
22240;SDS011;11289;52.524;13.694;2023-02-15T13:26:54;27.75;;;16.63;;
22240;SDS011;11289;52.524;13.694;2023-02-15T13:29:28;27.77;;;17.42;;
22240;SDS011;11289;52.524;13.694;2023-02-15T13:31:57;26.95;;;16.30;;
22240;SDS011;11289;52.524;13.694;2023-02-15T13:34:28;30.20;;;18.13;;
22240;SDS011;11289;52.524;13.694;2023-02-15T13:39:47;26.58;;;17.75;;
22240;SDS011;11289;52.524;13.694;2023-02-15T13:42:20;29.10;;;17.33;;
22240;SDS011;11289;52.524;13.694;2023-02-15T13:45:14;28.98;;;17.55;;
22240;SDS011;11289;52.524;13.694;2023-02-15T13:48:11;31.02;;;17.15;;
22240;SDS011;11289;52.524;13.694;2023-02-15T13:53:43;29.35;;;15.55;;
22240;SDS011;11289;52.524;13.694;2023-02-15T13:59:53;27.45;;;16.33;;
22240;SDS011;11289;52.524;13.694;2023-02-15T14:10:59;23.30;;;14.40;;
22240;SDS011;11289;52.524;13.694;2023-02-15T14:16:39;26.42;;;16.55;;
22240;SDS011;11289;52.524;13.694;2023-02-15T14:32:33;25.70;;;15.85;;
22240;SDS011;11289;52.524;13.694;2023-02-15T14:35:04;23.48;;;13.68;;
22240;SDS011;11289;52.524;13.694;2023-02-15T14:37:40;23.30;;;15.38;;
22240;SDS011;11289;52.524;13.694;2023-02-15T14:43:26;24.08;;;14.88;;
22240;SDS011;11289;52.524;13.694;2023-02-15T14:46:12;26.25;;;15.48;;
22240;SDS011;11289;52.524;13.694;2023-02-15T14:48:46;21.83;;;13.45;;
22240;SDS011;11289;52.524;13.694;2023-02-15T14:52:03;23.45;;;13.93;;
22240;SDS011;11289;52.524;13.694;2023-02-15T14:54:10;20.90;;;12.65;;
22240;SDS011;11289;52.524;13.694;2023-02-15T14:59:26;21.30;;;14.82;;
22240;SDS011;11289;52.524;13.694;2023-02-15T15:14:57;22.42;;;14.00;;
22240;SDS011;11289;52.524;13.694;2023-02-15T15:19:58;21.42;;;13.27;;
22240;SDS011;11289;52.524;13.694;2023-02-15T15:22:28;24.42;;;15.98;;
22240;SDS011;11289;52.524;13.694;2023-02-15T15:46:41;21.58;;;15.23;;
22240;SDS011;11289;52.524;13.694;2023-02-15T15:49:30;23.05;;;15.70;;
22240;SDS011;11289;52.524;13.694;2023-02-15T15:52:02;23.23;;;14.75;;
22240;SDS011;11289;52.524;13.694;2023-02-15T15:54:38;20.23;;;14.25;;
22240;SDS011;11289;52.524;13.694;2023-02-15T15:57:05;21.58;;;13.40;;
22240;SDS011;11289;52.524;13.694;2023-02-15T15:59:37;22.92;;;14.80;;
22240;SDS011;11289;52.524;13.694;2023-02-15T16:02:16;23.65;;;14.70;;
22240;SDS011;11289;52.524;13.694;2023-02-15T16:04:42;20.55;;;13.45;;
22240;SDS011;11289;52.524;13.694;2023-02-15T16:10:05;20.48;;;13.68;;
22240;SDS011;11289;52.524;13.694;2023-02-15T16:12:31;20.65;;;13.40;;
22240;SDS011;11289;52.524;13.694;2023-02-15T16:14:58;21.77;;;13.73;;
22240;SDS011;11289;52.524;13.694;2023-02-15T16:17:29;22.15;;;13.77;;
22240;SDS011;11289;52.524;13.694;2023-02-15T16:20:02;21.50;;;13.95;;
22240;SDS011;11289;52.524;13.694;2023-02-15T16:22:33;22.25;;;13.98;;
22240;SDS011;11289;52.524;13.694;2023-02-15T16:27:43;21.98;;;14.05;;
22240;SDS011;11289;52.524;13.694;2023-02-15T16:30:31;22.63;;;14.18;;
22240;SDS011;11289;52.524;13.694;2023-02-15T16:33:07;21.45;;;14.20;;
22240;SDS011;11289;52.524;13.694;2023-02-15T16:38:28;21.73;;;13.88;;
22240;SDS011;11289;52.524;13.694;2023-02-15T16:41:26;21.45;;;14.50;;
22240;SDS011;11289;52.524;13.694;2023-02-15T16:43:54;25.48;;;16.13;;
22240;SDS011;11289;52.524;13.694;2023-02-15T16:46:26;24.10;;;15.70;;
22240;SDS011;11289;52.524;13.694;2023-02-15T16:48:57;27.33;;;17.65;;
22240;SDS011;11289;52.524;13.694;2023-02-15T16:51:27;23.10;;;15.35;;
22240;SDS011;11289;52.524;13.694;2023-02-15T16:53:54;25.75;;;15.68;;
22240;SDS011;11289;52.524;13.694;2023-02-15T16:56:22;24.30;;;15.95;;
22240;SDS011;11289;52.524;13.694;2023-02-15T16:58:50;25.00;;;15.80;;
22240;SDS011;11289;52.524;13.694;2023-02-15T17:01:19;24.17;;;16.35;;
22240;SDS011;11289;52.524;13.694;2023-02-15T17:03:48;28.42;;;16.55;;
22240;SDS011;11289;52.524;13.694;2023-02-15T17:06:23;26.67;;;19.15;;
22240;SDS011;11289;52.524;13.694;2023-02-15T17:08:51;29.38;;;18.85;;
22240;SDS011;11289;52.524;13.694;2023-02-15T17:11:19;27.33;;;20.00;;
22240;SDS011;11289;52.524;13.694;2023-02-15T17:16:28;29.77;;;19.83;;
22240;SDS011;11289;52.524;13.694;2023-02-15T17:18:56;26.75;;;19.38;;
22240;SDS011;11289;52.524;13.694;2023-02-15T17:21:44;30.17;;;21.55;;
22240;SDS011;11289;52.524;13.694;2023-02-15T17:24:17;31.40;;;20.48;;
22240;SDS011;11289;52.524;13.694;2023-02-15T17:27:00;30.45;;;21.83;;
22240;SDS011;11289;52.524;13.694;2023-02-15T17:29:37;32.85;;;22.27;;
22240;SDS011;11289;52.524;13.694;2023-02-15T17:32:05;29.90;;;21.27;;
22240;SDS011;11289;52.524;13.694;2023-02-15T17:37:12;37.92;;;25.20;;
22240;SDS011;11289;52.524;13.694;2023-02-15T17:39:52;40.30;;;25.48;;
22240;SDS011;11289;52.524;13.694;2023-02-15T17:42:17;40.97;;;24.95;;
22240;SDS011;11289;52.524;13.694;2023-02-15T17:44:43;38.28;;;25.05;;
22240;SDS011;11289;52.524;13.694;2023-02-15T17:47:15;38.33;;;24.40;;